Flight Track Log - Related Links

Times and Time Zones

All times are in EDT time to prevent confusion due to time zone crossing. See the PCM7679 flight status page for this flight to view local times or setup timezone preferences in your user account.

Time Position Orientation Groundspeed Altitude Reporting Facility
EDT Latitude Longitude Course Direction KTS MPH feet Rate Location/Type
Fri 08:40:15 PM 36.5853 -121.8262 314° West  Level FlightAware Approximate
Fri 08:41:18 PM 36.6167 -121.8667 22° Northeast 120 138 2,200  Level Northern Cal TRACON
Fri 08:42:24 PM 36.6500 -121.8500 39° Northeast 134 154 3,100 850 Climbing Northern Cal TRACON
Fri 08:43:18 PM 36.6833 -121.8167 58° Northeast 129 148 3,900 835 Climbing Northern Cal TRACON
Fri 08:44:19 PM 36.7000 -121.7833 22° Northeast 137 158 4,700 694 Climbing Northern Cal TRACON
Fri 08:45:19 PM 36.7333 -121.7667 39° Northeast 140 161 5,300 645 Climbing Northern Cal TRACON
Fri 08:46:20 PM 36.7667 -121.7333 58° Northeast 135 155 6,000 694 Climbing Northern Cal TRACON
Fri 08:47:20 PM 36.7833 -121.7000 39° Northeast 136 157 6,700 450 Climbing Northern Cal TRACON
Fri 08:48:20 PM 36.8167 -121.6667 50° Northeast 155 178 6,900 99 Climbing Northern Cal TRACON
Fri 08:49:21 PM 36.8500 -121.6167 360° North 158 182 6,900  Level Northern Cal TRACON
Fri 08:50:22 PM 36.9000 -121.6167 22° Northeast 152 175 6,900  Level Northern Cal TRACON
Fri 08:51:22 PM 36.9333 -121.6000 360° North 156 180 6,900  Level Northern Cal TRACON
Fri 08:52:28 PM 36.9833 -121.6000 15° North 154 177 6,900  Level Northern Cal TRACON
Fri 08:53:29 PM 37.0333 -121.5833 360° North 152 175 6,900 -248 Level Northern Cal TRACON
Fri 08:54:29 PM 37.0667 -121.5833 360° North 166 191 6,400 -446 Descending Northern Cal TRACON
Fri 08:55:30 PM 37.1167 -121.5833 360° North 166 191 6,000 -209 Descending Northern Cal TRACON
Fri 08:56:24 PM 37.1667 -121.5833 360° North 161 185 6,000  Level Northern Cal TRACON
Fri 08:57:24 PM 37.2000 -121.5833 15° North 160 184 6,000  Level Northern Cal TRACON
Fri 08:58:25 PM 37.2500 -121.5667 360° North 159 183 6,000  Level Northern Cal TRACON
Fri 08:59:25 PM 37.3000 -121.5667 360° North 161 185 6,000 50 Level Northern Cal TRACON
Fri 09:00:25 PM 37.3333 -121.5667 360° North 159 183 6,100  Climbing Northern Cal TRACON
Fri 09:01:31 PM 37.3833 -121.5667 322° Northwest 165 190 6,000 -50 Descending Northern Cal TRACON
Fri 09:02:25 PM 37.4167 -121.6000 322° Northwest 160 184 6,000  Level Northern Cal TRACON
Fri 09:03:25 PM 37.4500 -121.6333 310° West 158 182 6,000 48 Level Northern Cal TRACON
Fri 09:04:31 PM 37.4833 -121.6833 302° West 154 177 6,100 50 Climbing Northern Cal TRACON
Fri 09:05:25 PM 37.5000 -121.7167 310° West 152 175 6,100 -50 Level Northern Cal TRACON
Fri 09:06:32 PM 37.5333 -121.7667 302° West 153 176 6,000 -248 Descending Northern Cal TRACON
Fri 09:07:26 PM 37.5500 -121.8000 302° West 163 188 5,600 -550 Descending Northern Cal TRACON
Fri 09:08:32 PM 37.5833 -121.8667 302° West 168 193 4,900 -750 Descending Northern Cal TRACON
Fri 09:09:26 PM 37.6000 -121.9000 310° West 164 189 4,100 -579 Descending Northern Cal TRACON
Fri 09:10:26 PM 37.6333 -121.9500 293° West 157 181 3,800 -333 Descending Northern Cal TRACON
Fri 09:11:32 PM 37.6500 -122.0000 293° West 156 180 3,400 -446 Descending Northern Cal TRACON
Fri 09:12:27 PM 37.6667 -122.0500 293° West 163 188 2,900 -574 Descending Northern Cal TRACON
Fri 09:13:27 PM 37.6833 -122.1000 293° West 157 181 2,300 -744 Descending Northern Cal TRACON
Fri 09:14:28 PM 37.7000 -122.1500 293° West 162 186 1,400 -885 Descending Northern Cal TRACON

Login

Don't have an account? Register now (free) for customized features, flight alerts, and more!